Terminal Aerodrome Forecast
Issued by NWS

Home | Current Version | Previous Version | Text Only | Print | Product List | Glossary On
Versions: 1 2 3 4 5 6 7 8 9 10 11 12 13 14
000
FTUS46 KHNX 190523
TAFMER
TAF
KMER 190523Z 1906/2006 01011KT P6SM SKC
     FM192000 33008KT P6SM SKC
     FM200500 VRB04KT P6SM SKC=

USA.gov is the U.S. government's official web portal to all federal, state and local government web resources and services.